sensor_id;sensor_type;location;lat;lon;timestamp;temperature;humidity
57552;DHT22;43379;48.160;14.036;2022-12-07T00:01:21;5.90;99.90
57552;DHT22;43379;48.160;14.036;2022-12-07T00:03:48;5.90;99.90
57552;DHT22;43379;48.160;14.036;2022-12-07T00:06:15;5.90;99.90
57552;DHT22;43379;48.160;14.036;2022-12-07T00:08:42;5.90;99.90
57552;DHT22;43379;48.160;14.036;2022-12-07T00:11:13;5.90;99.90
57552;DHT22;43379;48.160;14.036;2022-12-07T00:13:40;5.90;99.90
57552;DHT22;43379;48.160;14.036;2022-12-07T00:16:09;5.90;99.90
57552;DHT22;43379;48.160;14.036;2022-12-07T00:18:36;5.80;99.90
57552;DHT22;43379;48.160;14.036;2022-12-07T00:21:03;5.80;99.90
57552;DHT22;43379;48.160;14.036;2022-12-07T00:23:30;5.80;99.90
57552;DHT22;43379;48.160;14.036;2022-12-07T00:25:56;5.80;99.90
57552;DHT22;43379;48.160;14.036;2022-12-07T00:28:22;5.80;99.90
57552;DHT22;43379;48.160;14.036;2022-12-07T00:30:47;5.80;99.90
57552;DHT22;43379;48.160;14.036;2022-12-07T00:33:13;5.80;99.90
57552;DHT22;43379;48.160;14.036;2022-12-07T00:35:38;5.80;99.90
57552;DHT22;43379;48.160;14.036;2022-12-07T00:38:04;5.80;99.90
57552;DHT22;43379;48.160;14.036;2022-12-07T00:40:30;5.80;99.90
57552;DHT22;43379;48.160;14.036;2022-12-07T00:42:55;5.80;99.90
57552;DHT22;43379;48.160;14.036;2022-12-07T00:45:21;5.80;99.90
57552;DHT22;43379;48.160;14.036;2022-12-07T00:47:46;5.80;99.90
57552;DHT22;43379;48.160;14.036;2022-12-07T00:50:12;5.80;99.90
57552;DHT22;43379;48.160;14.036;2022-12-07T00:52:38;5.70;99.90
57552;DHT22;43379;48.160;14.036;2022-12-07T00:55:04;5.80;99.90
57552;DHT22;43379;48.160;14.036;2022-12-07T00:57:30;5.70;99.90
57552;DHT22;43379;48.160;14.036;2022-12-07T00:59:56;5.80;99.90
57552;DHT22;43379;48.160;14.036;2022-12-07T01:02:23;5.80;99.90
57552;DHT22;43379;48.160;14.036;2022-12-07T01:04:49;5.70;99.90
57552;DHT22;43379;48.160;14.036;2022-12-07T01:07:14;5.80;99.90
57552;DHT22;43379;48.160;14.036;2022-12-07T01:09:40;5.80;99.90
57552;DHT22;43379;48.160;14.036;2022-12-07T01:12:06;5.80;99.90
57552;DHT22;43379;48.160;14.036;2022-12-07T01:14:31;5.80;99.90
57552;DHT22;43379;48.160;14.036;2022-12-07T01:16:57;5.80;99.90
57552;DHT22;43379;48.160;14.036;2022-12-07T01:19:23;5.80;99.90
57552;DHT22;43379;48.160;14.036;2022-12-07T01:21:48;5.80;99.90
57552;DHT22;43379;48.160;14.036;2022-12-07T01:24:14;5.80;99.90
57552;DHT22;43379;48.160;14.036;2022-12-07T01:26:39;5.80;99.90
57552;DHT22;43379;48.160;14.036;2022-12-07T01:29:06;5.80;99.90
57552;DHT22;43379;48.160;14.036;2022-12-07T01:31:32;5.80;99.90
57552;DHT22;43379;48.160;14.036;2022-12-07T01:33:59;5.90;99.90
57552;DHT22;43379;48.160;14.036;2022-12-07T01:36:28;5.80;99.90
57552;DHT22;43379;48.160;14.036;2022-12-07T01:39:00;5.80;99.90
57552;DHT22;43379;48.160;14.036;2022-12-07T01:41:33;5.80;99.90
57552;DHT22;43379;48.160;14.036;2022-12-07T01:46:33;5.80;99.90
57552;DHT22;43379;48.160;14.036;2022-12-07T01:48:59;5.80;99.90
57552;DHT22;43379;48.160;14.036;2022-12-07T01:51:26;5.80;99.90
57552;DHT22;43379;48.160;14.036;2022-12-07T01:53:52;5.80;99.90
57552;DHT22;43379;48.160;14.036;2022-12-07T01:56:20;5.80;99.90
57552;DHT22;43379;48.160;14.036;2022-12-07T01:58:49;5.80;99.90
57552;DHT22;43379;48.160;14.036;2022-12-07T02:01:16;5.80;99.90
57552;DHT22;43379;48.160;14.036;2022-12-07T02:03:43;5.80;99.90
57552;DHT22;43379;48.160;14.036;2022-12-07T02:06:12;5.80;99.90
57552;DHT22;43379;48.160;14.036;2022-12-07T02:08:40;5.80;99.90
57552;DHT22;43379;48.160;14.036;2022-12-07T02:11:07;5.80;99.90
57552;DHT22;43379;48.160;14.036;2022-12-07T02:13:35;5.80;99.90
57552;DHT22;43379;48.160;14.036;2022-12-07T02:16:25;5.80;99.90
57552;DHT22;43379;48.160;14.036;2022-12-07T02:22:23;5.80;99.90
57552;DHT22;43379;48.160;14.036;2022-12-07T02:27:50;5.80;99.90
57552;DHT22;43379;48.160;14.036;2022-12-07T02:30:20;5.80;99.90
57552;DHT22;43379;48.160;14.036;2022-12-07T02:33:06;5.80;99.90
57552;DHT22;43379;48.160;14.036;2022-12-07T02:40:43;5.80;99.90
57552;DHT22;43379;48.160;14.036;2022-12-07T02:43:19;5.80;99.90
57552;DHT22;43379;48.160;14.036;2022-12-07T02:45:48;5.80;99.90
57552;DHT22;43379;48.160;14.036;2022-12-07T02:48:17;5.80;99.90
57552;DHT22;43379;48.160;14.036;2022-12-07T02:50:51;5.70;99.90
57552;DHT22;43379;48.160;14.036;2022-12-07T02:53:41;5.60;99.90
57552;DHT22;43379;48.160;14.036;2022-12-07T03:02:03;5.80;99.90
57552;DHT22;43379;48.160;14.036;2022-12-07T03:07:33;5.80;99.90
57552;DHT22;43379;48.160;14.036;2022-12-07T03:10:22;5.80;99.90
57552;DHT22;43379;48.160;14.036;2022-12-07T03:13:28;5.80;99.90
57552;DHT22;43379;48.160;14.036;2022-12-07T03:16:02;5.80;99.90
57552;DHT22;43379;48.160;14.036;2022-12-07T03:18:34;5.80;99.90
57552;DHT22;43379;48.160;14.036;2022-12-07T03:21:05;5.80;99.90
57552;DHT22;43379;48.160;14.036;2022-12-07T03:23:34;5.80;99.90
57552;DHT22;43379;48.160;14.036;2022-12-07T03:26:01;5.80;99.90
57552;DHT22;43379;48.160;14.036;2022-12-07T03:28:33;5.80;99.90
57552;DHT22;43379;48.160;14.036;2022-12-07T03:31:09;5.70;99.90
57552;DHT22;43379;48.160;14.036;2022-12-07T03:36:26;5.60;99.90
57552;DHT22;43379;48.160;14.036;2022-12-07T03:39:19;5.70;99.90
57552;DHT22;43379;48.160;14.036;2022-12-07T03:41:45;5.70;99.90
57552;DHT22;43379;48.160;14.036;2022-12-07T03:44:12;5.70;99.90
57552;DHT22;43379;48.160;14.036;2022-12-07T03:47:03;5.70;99.90
57552;DHT22;43379;48.160;14.036;2022-12-07T03:50:10;5.70;99.90
57552;DHT22;43379;48.160;14.036;2022-12-07T03:57:35;5.60;99.90
57552;DHT22;43379;48.160;14.036;2022-12-07T04:00:04;5.60;99.90
57552;DHT22;43379;48.160;14.036;2022-12-07T04:02:30;5.60;99.90
57552;DHT22;43379;48.160;14.036;2022-12-07T04:04:57;5.60;99.90
57552;DHT22;43379;48.160;14.036;2022-12-07T04:07:23;5.60;99.90
57552;DHT22;43379;48.160;14.036;2022-12-07T04:09:48;5.60;99.90
57552;DHT22;43379;48.160;14.036;2022-12-07T04:12:14;5.50;99.90
57552;DHT22;43379;48.160;14.036;2022-12-07T04:14:40;5.50;99.90
57552;DHT22;43379;48.160;14.036;2022-12-07T04:17:05;5.50;99.90
57552;DHT22;43379;48.160;14.036;2022-12-07T04:19:33;5.50;99.90
57552;DHT22;43379;48.160;14.036;2022-12-07T04:22:00;5.50;99.90
57552;DHT22;43379;48.160;14.036;2022-12-07T04:24:26;5.50;99.90
57552;DHT22;43379;48.160;14.036;2022-12-07T04:26:52;5.50;99.90
57552;DHT22;43379;48.160;14.036;2022-12-07T04:29:19;5.50;99.90
57552;DHT22;43379;48.160;14.036;2022-12-07T04:31:45;5.50;99.90
57552;DHT22;43379;48.160;14.036;2022-12-07T04:34:11;5.50;99.90
57552;DHT22;43379;48.160;14.036;2022-12-07T04:36:38;5.40;99.90
57552;DHT22;43379;48.160;14.036;2022-12-07T04:39:05;5.40;99.90
57552;DHT22;43379;48.160;14.036;2022-12-07T04:41:31;5.40;99.90
57552;DHT22;43379;48.160;14.036;2022-12-07T04:43:59;5.40;99.90
57552;DHT22;43379;48.160;14.036;2022-12-07T04:46:25;5.40;99.90
57552;DHT22;43379;48.160;14.036;2022-12-07T04:48:52;5.40;99.90
57552;DHT22;43379;48.160;14.036;2022-12-07T04:51:28;5.40;99.90
57552;DHT22;43379;48.160;14.036;2022-12-07T04:53:55;5.30;99.90
57552;DHT22;43379;48.160;14.036;2022-12-07T04:56:21;5.30;99.90
57552;DHT22;43379;48.160;14.036;2022-12-07T04:58:47;5.30;99.90
57552;DHT22;43379;48.160;14.036;2022-12-07T05:01:14;5.30;99.90
57552;DHT22;43379;48.160;14.036;2022-12-07T05:03:40;5.30;99.90
57552;DHT22;43379;48.160;14.036;2022-12-07T05:06:07;5.30;99.90
57552;DHT22;43379;48.160;14.036;2022-12-07T05:08:33;5.30;99.90
57552;DHT22;43379;48.160;14.036;2022-12-07T05:11:00;5.40;99.90
57552;DHT22;43379;48.160;14.036;2022-12-07T05:13:25;5.40;99.90
57552;DHT22;43379;48.160;14.036;2022-12-07T05:15:51;5.40;99.90
57552;DHT22;43379;48.160;14.036;2022-12-07T05:18:17;5.40;99.90
57552;DHT22;43379;48.160;14.036;2022-12-07T05:20:43;5.40;99.90
57552;DHT22;43379;48.160;14.036;2022-12-07T05:23:09;5.30;99.90
57552;DHT22;43379;48.160;14.036;2022-12-07T05:25:35;5.30;99.90
57552;DHT22;43379;48.160;14.036;2022-12-07T05:28:01;5.30;99.90
57552;DHT22;43379;48.160;14.036;2022-12-07T05:30:27;5.40;99.90
57552;DHT22;43379;48.160;14.036;2022-12-07T05:32:53;5.40;99.90
57552;DHT22;43379;48.160;14.036;2022-12-07T05:35:19;5.40;99.90
57552;DHT22;43379;48.160;14.036;2022-12-07T05:37:45;5.40;99.90
57552;DHT22;43379;48.160;14.036;2022-12-07T05:40:14;5.40;99.90
57552;DHT22;43379;48.160;14.036;2022-12-07T05:42:40;5.40;99.90
57552;DHT22;43379;48.160;14.036;2022-12-07T05:45:06;5.40;99.90
57552;DHT22;43379;48.160;14.036;2022-12-07T05:47:32;5.40;99.90
57552;DHT22;43379;48.160;14.036;2022-12-07T05:49:58;5.40;99.90
57552;DHT22;43379;48.160;14.036;2022-12-07T05:52:24;5.40;99.90
57552;DHT22;43379;48.160;14.036;2022-12-07T05:54:49;5.40;99.90
57552;DHT22;43379;48.160;14.036;2022-12-07T05:57:15;5.40;99.90
57552;DHT22;43379;48.160;14.036;2022-12-07T05:59:41;5.40;99.90
57552;DHT22;43379;48.160;14.036;2022-12-07T06:02:10;5.40;99.90
57552;DHT22;43379;48.160;14.036;2022-12-07T06:04:39;5.40;99.90
57552;DHT22;43379;48.160;14.036;2022-12-07T06:07:05;5.40;99.90
57552;DHT22;43379;48.160;14.036;2022-12-07T06:09:32;5.40;99.90
57552;DHT22;43379;48.160;14.036;2022-12-07T06:11:57;5.40;99.90
57552;DHT22;43379;48.160;14.036;2022-12-07T06:14:42;5.40;99.90
57552;DHT22;43379;48.160;14.036;2022-12-07T06:17:08;5.40;99.90
57552;DHT22;43379;48.160;14.036;2022-12-07T06:19:34;5.40;99.90
57552;DHT22;43379;48.160;14.036;2022-12-07T06:22:01;5.40;99.90
57552;DHT22;43379;48.160;14.036;2022-12-07T06:24:26;5.40;99.90
57552;DHT22;43379;48.160;14.036;2022-12-07T06:26:52;5.30;99.90
57552;DHT22;43379;48.160;14.036;2022-12-07T06:29:18;5.30;99.90
57552;DHT22;43379;48.160;14.036;2022-12-07T06:31:44;5.30;99.90
57552;DHT22;43379;48.160;14.036;2022-12-07T06:34:13;5.30;99.90
57552;DHT22;43379;48.160;14.036;2022-12-07T06:36:39;5.30;99.90
57552;DHT22;43379;48.160;14.036;2022-12-07T06:39:05;5.40;99.90
57552;DHT22;43379;48.160;14.036;2022-12-07T06:41:31;5.40;99.90
57552;DHT22;43379;48.160;14.036;2022-12-07T06:43:57;5.40;99.90
57552;DHT22;43379;48.160;14.036;2022-12-07T06:46:23;5.40;99.90
57552;DHT22;43379;48.160;14.036;2022-12-07T06:48:48;5.30;99.90
57552;DHT22;43379;48.160;14.036;2022-12-07T06:51:14;5.30;99.90
57552;DHT22;43379;48.160;14.036;2022-12-07T06:53:40;5.40;99.90
57552;DHT22;43379;48.160;14.036;2022-12-07T06:56:06;5.40;99.90
57552;DHT22;43379;48.160;14.036;2022-12-07T06:58:32;5.40;99.90
57552;DHT22;43379;48.160;14.036;2022-12-07T07:00:57;5.30;99.90
57552;DHT22;43379;48.160;14.036;2022-12-07T07:03:24;5.40;99.90
57552;DHT22;43379;48.160;14.036;2022-12-07T07:05:50;5.40;99.90
57552;DHT22;43379;48.160;14.036;2022-12-07T07:08:15;5.40;99.90
57552;DHT22;43379;48.160;14.036;2022-12-07T07:10:41;5.40;99.90
57552;DHT22;43379;48.160;14.036;2022-12-07T07:13:07;5.30;99.90
57552;DHT22;43379;48.160;14.036;2022-12-07T07:15:33;5.40;99.90
57552;DHT22;43379;48.160;14.036;2022-12-07T07:17:59;5.40;99.90
57552;DHT22;43379;48.160;14.036;2022-12-07T07:20:25;5.40;99.90
57552;DHT22;43379;48.160;14.036;2022-12-07T07:22:54;5.40;99.90
57552;DHT22;43379;48.160;14.036;2022-12-07T07:25:20;5.50;99.90
57552;DHT22;43379;48.160;14.036;2022-12-07T07:27:46;5.50;99.90
57552;DHT22;43379;48.160;14.036;2022-12-07T07:30:12;5.50;99.90
57552;DHT22;43379;48.160;14.036;2022-12-07T07:32:37;5.50;99.90
57552;DHT22;43379;48.160;14.036;2022-12-07T07:35:04;5.50;99.90
57552;DHT22;43379;48.160;14.036;2022-12-07T07:37:29;5.50;99.90
57552;DHT22;43379;48.160;14.036;2022-12-07T07:39:55;5.50;99.90
57552;DHT22;43379;48.160;14.036;2022-12-07T07:42:21;5.50;99.90
57552;DHT22;43379;48.160;14.036;2022-12-07T07:44:46;5.50;99.90
57552;DHT22;43379;48.160;14.036;2022-12-07T07:47:12;5.50;99.90
57552;DHT22;43379;48.160;14.036;2022-12-07T07:49:38;5.50;99.90
57552;DHT22;43379;48.160;14.036;2022-12-07T07:52:05;5.40;99.90
57552;DHT22;43379;48.160;14.036;2022-12-07T07:54:31;5.50;99.90
57552;DHT22;43379;48.160;14.036;2022-12-07T07:56:57;5.50;99.90
57552;DHT22;43379;48.160;14.036;2022-12-07T07:59:24;5.50;99.90
57552;DHT22;43379;48.160;14.036;2022-12-07T08:01:50;5.50;99.90
57552;DHT22;43379;48.160;14.036;2022-12-07T08:04:16;5.50;99.90
57552;DHT22;43379;48.160;14.036;2022-12-07T08:06:42;5.60;99.90
57552;DHT22;43379;48.160;14.036;2022-12-07T08:09:08;5.60;99.90
57552;DHT22;43379;48.160;14.036;2022-12-07T08:11:34;5.70;99.90
57552;DHT22;43379;48.160;14.036;2022-12-07T08:14:01;5.70;99.90
57552;DHT22;43379;48.160;14.036;2022-12-07T08:16:27;5.70;99.90
57552;DHT22;43379;48.160;14.036;2022-12-07T08:18:53;5.80;99.90
57552;DHT22;43379;48.160;14.036;2022-12-07T08:21:18;5.90;99.90
57552;DHT22;43379;48.160;14.036;2022-12-07T08:23:44;6.00;99.90
57552;DHT22;43379;48.160;14.036;2022-12-07T08:26:13;6.10;99.90
57552;DHT22;43379;48.160;14.036;2022-12-07T08:28:39;6.10;99.90
57552;DHT22;43379;48.160;14.036;2022-12-07T08:31:08;6.20;99.90
57552;DHT22;43379;48.160;14.036;2022-12-07T08:33:35;6.20;99.90
57552;DHT22;43379;48.160;14.036;2022-12-07T08:36:06;6.30;99.90
57552;DHT22;43379;48.160;14.036;2022-12-07T08:38:33;6.20;99.90
57552;DHT22;43379;48.160;14.036;2022-12-07T08:40:59;6.30;99.90
57552;DHT22;43379;48.160;14.036;2022-12-07T08:43:25;6.30;99.90
57552;DHT22;43379;48.160;14.036;2022-12-07T08:48:30;6.40;99.90
57552;DHT22;43379;48.160;14.036;2022-12-07T08:50:56;6.40;99.90
57552;DHT22;43379;48.160;14.036;2022-12-07T08:53:22;6.40;99.90
57552;DHT22;43379;48.160;14.036;2022-12-07T08:55:48;6.30;99.90
57552;DHT22;43379;48.160;14.036;2022-12-07T08:58:14;6.20;99.90
57552;DHT22;43379;48.160;14.036;2022-12-07T09:00:40;6.20;99.90
57552;DHT22;43379;48.160;14.036;2022-12-07T09:03:06;6.30;99.90
57552;DHT22;43379;48.160;14.036;2022-12-07T09:05:32;6.20;99.90
57552;DHT22;43379;48.160;14.036;2022-12-07T09:08:00;6.20;99.90
57552;DHT22;43379;48.160;14.036;2022-12-07T09:10:27;6.20;99.90
57552;DHT22;43379;48.160;14.036;2022-12-07T09:12:54;6.20;99.90
57552;DHT22;43379;48.160;14.036;2022-12-07T09:15:19;6.20;99.90
57552;DHT22;43379;48.160;14.036;2022-12-07T09:17:45;6.30;99.90
57552;DHT22;43379;48.160;14.036;2022-12-07T09:20:11;6.30;99.90
57552;DHT22;43379;48.160;14.036;2022-12-07T09:22:37;6.30;99.90
57552;DHT22;43379;48.160;14.036;2022-12-07T09:25:03;6.40;99.90
57552;DHT22;43379;48.160;14.036;2022-12-07T09:27:30;6.40;99.90
57552;DHT22;43379;48.160;14.036;2022-12-07T09:29:55;6.50;99.90
57552;DHT22;43379;48.160;14.036;2022-12-07T09:32:21;6.50;99.90
57552;DHT22;43379;48.160;14.036;2022-12-07T09:34:48;6.50;99.90
57552;DHT22;43379;48.160;14.036;2022-12-07T09:37:14;6.50;99.90
57552;DHT22;43379;48.160;14.036;2022-12-07T09:39:40;6.50;99.90
57552;DHT22;43379;48.160;14.036;2022-12-07T09:42:06;6.40;99.90
57552;DHT22;43379;48.160;14.036;2022-12-07T09:44:33;6.50;99.90
57552;DHT22;43379;48.160;14.036;2022-12-07T09:47:00;6.50;99.90
57552;DHT22;43379;48.160;14.036;2022-12-07T09:49:29;6.50;99.90
57552;DHT22;43379;48.160;14.036;2022-12-07T09:54:44;6.50;99.90
57552;DHT22;43379;48.160;14.036;2022-12-07T09:57:11;6.60;99.90
57552;DHT22;43379;48.160;14.036;2022-12-07T09:59:40;6.60;99.90
57552;DHT22;43379;48.160;14.036;2022-12-07T10:04:52;7.10;99.90
57552;DHT22;43379;48.160;14.036;2022-12-07T10:07:18;7.20;99.90
57552;DHT22;43379;48.160;14.036;2022-12-07T10:09:44;7.30;99.90
57552;DHT22;43379;48.160;14.036;2022-12-07T10:12:11;7.40;99.90
57552;DHT22;43379;48.160;14.036;2022-12-07T10:14:40;7.30;99.90
57552;DHT22;43379;48.160;14.036;2022-12-07T10:17:38;7.40;99.90
57552;DHT22;43379;48.160;14.036;2022-12-07T10:20:25;7.40;99.90
57552;DHT22;43379;48.160;14.036;2022-12-07T10:22:59;7.50;99.90
57552;DHT22;43379;48.160;14.036;2022-12-07T10:25:31;7.50;99.90
57552;DHT22;43379;48.160;14.036;2022-12-07T10:28:18;7.60;99.90
57552;DHT22;43379;48.160;14.036;2022-12-07T10:31:02;7.70;99.90
57552;DHT22;43379;48.160;14.036;2022-12-07T10:35:54;7.70;99.90
57552;DHT22;43379;48.160;14.036;2022-12-07T10:38:20;7.70;99.90
57552;DHT22;43379;48.160;14.036;2022-12-07T10:40:46;7.70;99.90
57552;DHT22;43379;48.160;14.036;2022-12-07T10:56:48;7.50;99.90
57552;DHT22;43379;48.160;14.036;2022-12-07T10:59:36;7.50;99.90
57552;DHT22;43379;48.160;14.036;2022-12-07T11:05:02;7.30;99.90
57552;DHT22;43379;48.160;14.036;2022-12-07T11:13:22;7.10;99.90
57552;DHT22;43379;48.160;14.036;2022-12-07T11:21:30;7.20;99.90
57552;DHT22;43379;48.160;14.036;2022-12-07T11:29:56;7.40;99.90
57552;DHT22;43379;48.160;14.036;2022-12-07T11:38:01;7.50;98.60
57552;DHT22;43379;48.160;14.036;2022-12-07T11:40:35;7.50;98.60
57552;DHT22;43379;48.160;14.036;2022-12-07T11:43:16;7.50;98.40
57552;DHT22;43379;48.160;14.036;2022-12-07T11:45:46;7.50;96.90
57552;DHT22;43379;48.160;14.036;2022-12-07T11:55:49;7.70;97.70
57552;DHT22;43379;48.160;14.036;2022-12-07T12:06:31;7.70;98.20
57552;DHT22;43379;48.160;14.036;2022-12-07T12:09:29;7.80;98.10
57552;DHT22;43379;48.160;14.036;2022-12-07T12:20:29;7.90;98.70
57552;DHT22;43379;48.160;14.036;2022-12-07T12:25:47;8.00;98.30
57552;DHT22;43379;48.160;14.036;2022-12-07T12:34:00;8.20;97.90
57552;DHT22;43379;48.160;14.036;2022-12-07T12:39:19;8.10;97.80
57552;DHT22;43379;48.160;14.036;2022-12-07T12:51:48;7.70;97.60
57552;DHT22;43379;48.160;14.036;2022-12-07T12:54:19;7.70;97.80
57552;DHT22;43379;48.160;14.036;2022-12-07T12:57:24;7.70;98.10
57552;DHT22;43379;48.160;14.036;2022-12-07T13:02:29;7.40;97.60
57552;DHT22;43379;48.160;14.036;2022-12-07T13:04:57;7.40;97.80
57552;DHT22;43379;48.160;14.036;2022-12-07T13:15:46;7.20;97.00
57552;DHT22;43379;48.160;14.036;2022-12-07T13:21:43;7.20;97.30
57552;DHT22;43379;48.160;14.036;2022-12-07T13:28:40;7.20;97.50
57552;DHT22;43379;48.160;14.036;2022-12-07T13:31:29;7.10;98.00
57552;DHT22;43379;48.160;14.036;2022-12-07T13:33:56;7.10;98.00
57552;DHT22;43379;48.160;14.036;2022-12-07T13:36:24;7.10;98.20
57552;DHT22;43379;48.160;14.036;2022-12-07T13:38:53;7.10;98.20
57552;DHT22;43379;48.160;14.036;2022-12-07T13:41:22;7.10;98.40
57552;DHT22;43379;48.160;14.036;2022-12-07T13:44:00;7.10;98.20
57552;DHT22;43379;48.160;14.036;2022-12-07T13:46:37;7.10;98.20
57552;DHT22;43379;48.160;14.036;2022-12-07T13:49:17;7.00;98.20
57552;DHT22;43379;48.160;14.036;2022-12-07T13:51:43;7.00;98.10
57552;DHT22;43379;48.160;14.036;2022-12-07T13:54:11;7.00;98.30
57552;DHT22;43379;48.160;14.036;2022-12-07T13:56:37;7.00;98.20
57552;DHT22;43379;48.160;14.036;2022-12-07T13:59:17;7.00;98.20
57552;DHT22;43379;48.160;14.036;2022-12-07T14:01:45;7.00;98.30
57552;DHT22;43379;48.160;14.036;2022-12-07T14:04:17;7.00;98.50
57552;DHT22;43379;48.160;14.036;2022-12-07T14:06:51;7.00;98.30
57552;DHT22;43379;48.160;14.036;2022-12-07T14:09:19;6.90;98.60
57552;DHT22;43379;48.160;14.036;2022-12-07T14:11:47;6.90;98.80
57552;DHT22;43379;48.160;14.036;2022-12-07T14:14:17;6.90;98.50
57552;DHT22;43379;48.160;14.036;2022-12-07T14:16:54;6.80;98.60
57552;DHT22;43379;48.160;14.036;2022-12-07T14:19:59;6.80;98.90
57552;DHT22;43379;48.160;14.036;2022-12-07T14:22:33;6.70;98.90
57552;DHT22;43379;48.160;14.036;2022-12-07T14:27:34;6.70;98.80
57552;DHT22;43379;48.160;14.036;2022-12-07T14:30:02;6.60;99.00
57552;DHT22;43379;48.160;14.036;2022-12-07T14:32:29;6.60;99.30
57552;DHT22;43379;48.160;14.036;2022-12-07T14:35:10;6.60;98.90
57552;DHT22;43379;48.160;14.036;2022-12-07T14:37:37;6.50;99.10
57552;DHT22;43379;48.160;14.036;2022-12-07T14:40:03;6.50;99.40
57552;DHT22;43379;48.160;14.036;2022-12-07T14:42:30;6.50;99.30
57552;DHT22;43379;48.160;14.036;2022-12-07T14:44:57;6.40;99.20
57552;DHT22;43379;48.160;14.036;2022-12-07T14:47:26;6.40;99.40
57552;DHT22;43379;48.160;14.036;2022-12-07T14:49:52;6.50;99.40
57552;DHT22;43379;48.160;14.036;2022-12-07T14:52:28;6.50;99.60
57552;DHT22;43379;48.160;14.036;2022-12-07T14:54:55;6.40;99.40
57552;DHT22;43379;48.160;14.036;2022-12-07T14:57:21;6.40;99.50
57552;DHT22;43379;48.160;14.036;2022-12-07T14:59:46;6.40;99.60
57552;DHT22;43379;48.160;14.036;2022-12-07T15:02:13;6.40;99.70
57552;DHT22;43379;48.160;14.036;2022-12-07T15:04:39;6.40;99.80
57552;DHT22;43379;48.160;14.036;2022-12-07T15:07:12;6.40;99.80
57552;DHT22;43379;48.160;14.036;2022-12-07T15:09:38;6.30;99.80
57552;DHT22;43379;48.160;14.036;2022-12-07T15:12:04;6.20;99.90
57552;DHT22;43379;48.160;14.036;2022-12-07T15:14:30;6.20;99.90
57552;DHT22;43379;48.160;14.036;2022-12-07T15:16:55;6.20;99.90
57552;DHT22;43379;48.160;14.036;2022-12-07T15:19:23;6.10;99.90
57552;DHT22;43379;48.160;14.036;2022-12-07T15:21:51;6.10;99.90
57552;DHT22;43379;48.160;14.036;2022-12-07T15:24:17;6.10;99.90
57552;DHT22;43379;48.160;14.036;2022-12-07T15:26:43;6.10;99.90
57552;DHT22;43379;48.160;14.036;2022-12-07T15:29:10;6.00;99.90
57552;DHT22;43379;48.160;14.036;2022-12-07T15:31:37;6.00;99.90
57552;DHT22;43379;48.160;14.036;2022-12-07T15:34:03;6.00;99.90
57552;DHT22;43379;48.160;14.036;2022-12-07T15:36:31;6.00;99.90
57552;DHT22;43379;48.160;14.036;2022-12-07T15:38:57;5.90;99.90
57552;DHT22;43379;48.160;14.036;2022-12-07T15:41:23;5.90;99.90
57552;DHT22;43379;48.160;14.036;2022-12-07T15:43:49;5.90;99.90
57552;DHT22;43379;48.160;14.036;2022-12-07T15:46:36;5.80;99.90
57552;DHT22;43379;48.160;14.036;2022-12-07T15:49:03;5.80;99.90
57552;DHT22;43379;48.160;14.036;2022-12-07T15:51:29;5.80;99.90
57552;DHT22;43379;48.160;14.036;2022-12-07T15:53:55;5.80;99.90
57552;DHT22;43379;48.160;14.036;2022-12-07T15:56:22;5.70;99.90
57552;DHT22;43379;48.160;14.036;2022-12-07T15:58:48;5.70;99.90
57552;DHT22;43379;48.160;14.036;2022-12-07T16:01:18;5.70;99.90
57552;DHT22;43379;48.160;14.036;2022-12-07T16:03:45;5.70;99.90
57552;DHT22;43379;48.160;14.036;2022-12-07T16:06:11;5.60;99.90
57552;DHT22;43379;48.160;14.036;2022-12-07T16:08:42;5.60;99.90
57552;DHT22;43379;48.160;14.036;2022-12-07T16:11:08;5.70;99.90
57552;DHT22;43379;48.160;14.036;2022-12-07T16:13:34;5.60;99.90
57552;DHT22;43379;48.160;14.036;2022-12-07T16:16:08;5.70;99.90
57552;DHT22;43379;48.160;14.036;2022-12-07T16:18:35;5.60;99.90
57552;DHT22;43379;48.160;14.036;2022-12-07T16:21:01;5.60;99.90
57552;DHT22;43379;48.160;14.036;2022-12-07T16:23:27;5.60;99.90
57552;DHT22;43379;48.160;14.036;2022-12-07T16:25:53;5.60;99.90
57552;DHT22;43379;48.160;14.036;2022-12-07T16:28:19;5.60;99.90
57552;DHT22;43379;48.160;14.036;2022-12-07T16:30:44;5.60;99.90
57552;DHT22;43379;48.160;14.036;2022-12-07T16:33:11;5.60;99.90
57552;DHT22;43379;48.160;14.036;2022-12-07T16:35:39;5.60;99.90
57552;DHT22;43379;48.160;14.036;2022-12-07T16:38:09;5.60;99.90
57552;DHT22;43379;48.160;14.036;2022-12-07T16:40:35;5.60;99.90
57552;DHT22;43379;48.160;14.036;2022-12-07T16:43:00;5.60;99.90
57552;DHT22;43379;48.160;14.036;2022-12-07T16:45:26;5.60;99.90
57552;DHT22;43379;48.160;14.036;2022-12-07T16:47:51;5.60;99.90
57552;DHT22;43379;48.160;14.036;2022-12-07T16:50:17;5.60;99.90
57552;DHT22;43379;48.160;14.036;2022-12-07T16:52:43;5.60;99.90
57552;DHT22;43379;48.160;14.036;2022-12-07T16:55:09;5.60;99.90
57552;DHT22;43379;48.160;14.036;2022-12-07T16:57:34;5.60;99.90
57552;DHT22;43379;48.160;14.036;2022-12-07T17:00:00;5.60;99.90
57552;DHT22;43379;48.160;14.036;2022-12-07T17:02:26;5.60;99.90
57552;DHT22;43379;48.160;14.036;2022-12-07T17:04:51;5.60;99.90
57552;DHT22;43379;48.160;14.036;2022-12-07T17:07:17;5.60;99.90
57552;DHT22;43379;48.160;14.036;2022-12-07T17:09:43;5.60;99.90
57552;DHT22;43379;48.160;14.036;2022-12-07T17:12:08;5.60;99.90
57552;DHT22;43379;48.160;14.036;2022-12-07T17:14:34;5.60;99.90
57552;DHT22;43379;48.160;14.036;2022-12-07T17:17:18;5.50;99.90
57552;DHT22;43379;48.160;14.036;2022-12-07T17:19:44;5.50;99.90
57552;DHT22;43379;48.160;14.036;2022-12-07T17:22:10;5.50;99.90
57552;DHT22;43379;48.160;14.036;2022-12-07T17:24:38;5.60;99.90
57552;DHT22;43379;48.160;14.036;2022-12-07T17:27:03;5.60;99.90
57552;DHT22;43379;48.160;14.036;2022-12-07T17:29:29;5.60;99.90
57552;DHT22;43379;48.160;14.036;2022-12-07T17:31:55;5.60;99.90
57552;DHT22;43379;48.160;14.036;2022-12-07T17:34:21;5.60;99.90
57552;DHT22;43379;48.160;14.036;2022-12-07T17:36:47;5.60;99.90
57552;DHT22;43379;48.160;14.036;2022-12-07T17:39:16;5.50;99.90
57552;DHT22;43379;48.160;14.036;2022-12-07T17:41:42;5.50;99.90
57552;DHT22;43379;48.160;14.036;2022-12-07T17:44:27;5.50;99.90
57552;DHT22;43379;48.160;14.036;2022-12-07T17:46:53;5.50;99.90
57552;DHT22;43379;48.160;14.036;2022-12-07T17:49:27;5.40;99.90
57552;DHT22;43379;48.160;14.036;2022-12-07T17:51:54;5.40;99.90
57552;DHT22;43379;48.160;14.036;2022-12-07T17:54:38;5.40;99.90
57552;DHT22;43379;48.160;14.036;2022-12-07T17:57:04;5.40;99.90
57552;DHT22;43379;48.160;14.036;2022-12-07T17:59:30;5.40;99.90
57552;DHT22;43379;48.160;14.036;2022-12-07T18:01:55;5.40;99.90
57552;DHT22;43379;48.160;14.036;2022-12-07T18:04:21;5.40;99.90
57552;DHT22;43379;48.160;14.036;2022-12-07T18:06:46;5.40;99.90